Startpagina
METAR-TAF:

METAR-TAF

Vliegvelden :

Liege Airport

Luik, België

breedte: 50-39N, lengte: 005-27E, hoogte: 186 m

Actueel weer

Dit bericht is 39 minuten geleden gemaakt, om 21:20 UTC
Wind 2 kt uit variabele richting
Temperatuur 4°C
Vochtigheid 87%
Druk 1027 hPa
Zicht: 8000 m

METAR: EBLG 162120Z VRB02KT 8000 NSC 04/02 Q1027 NOSIG

Tijdstip: 22:59 (21:59 UTC)

Verwachting

Dit bericht is 4 uur en het 39 minuten geleden gemaakt, om 17:20 UTC
Verwachting geldig van 16 om 18 UTC tot 17 om 24 UTC
Wind 6 kt uit het oosten
Zicht 10 km of meer
geen wolken onder 1500 m en geen cumulonimbus
Kans 30% :
Tijdelijke
van 16 om 21 UTC tot 17 om 05 UTC
Zicht: 1200 m
Gebroken wolken op 300 ft
nevel

TAF: EBLG 161720Z 1618/1724 08006KT CAVOK PROB30 TEMPO 1621/1705 1200 BR BKN003

Waarnemingen en weersverwachtingen van meer dan 4000 vliegvelden (METAR en TAF).

De beschikbare stations zijn de gele en rode punten op de kaart.

Ga met uw muis naar het station om de naam te zien.

Klik dan om waarnemingen en weersverwachtingen te zien.

kaart wijzigen: klik op de groene knoppen met een zwart kruis om in te zoomen, op de groene knop met een streepje om uit te zoomen of op de groene pijlen voor aangrenzende kaarten.


METAR-TAF: